Time;durP1;ratioP1;P1;durP2;ratioP2;P2;SDS_P1;SDS_P2;PMS_P1;PMS_P2;Temp;Humidity;BMP_temperature;BMP_pressure;BME280_temperature;BME280_humidity;BME280_pressure;Samples;Min_cycle;Max_cycle;Signal;HPM_P1;HPM_P2
2024/01/09 00:00:11;;;;;;;35.92;16.48;;;;;;;29.71;65.43;101093.50;5038690;28;69992;-42
2024/01/09 00:02:41;;;;;;;39.90;15.73;;;;;;;29.71;65.48;101093.50;5039874;28;65933;-42
2024/01/09 00:05:11;;;;;;;33.53;16.25;;;;;;;29.69;67.50;101095.56;5040906;28;70233;-42
2024/01/09 00:07:42;;;;;;;31.70;17.50;;;;;;;29.73;66.61;101098.69;5041935;28;66310;-41
2024/01/09 00:10:12;;;;;;;38.20;16.77;;;;;;;29.78;66.62;101109.69;5041192;28;69754;-41
2024/01/09 00:12:43;;;;;;;32.17;16.85;;;;;;;29.78;67.07;101115.09;5028072;28;66442;-41
2024/01/09 00:15:14;;;;;;;38.75;18.92;;;;;;;29.81;66.96;101120.97;5028004;28;69739;-40
2024/01/09 00:17:44;;;;;;;44.88;21.08;;;;;;;29.76;67.38;101106.41;5041708;28;64775;-40
2024/01/09 00:20:16;;;;;;;38.15;20.02;;;;;;;29.79;67.99;101106.81;5034987;28;70471;-41
2024/01/09 00:22:47;;;;;;;46.00;20.38;;;;;;;29.87;68.42;101119.28;5035092;28;65133;-41
2024/01/09 00:25:18;;;;;;;37.80;18.60;;;;;;;29.88;67.97;101120.94;5037709;28;68937;-40
2024/01/09 00:27:49;;;;;;;44.67;19.15;;;;;;;29.91;68.31;101128.63;5040056;28;65688;-41
2024/01/09 00:30:19;;;;;;;34.28;18.02;;;;;;;29.97;68.53;101129.69;5056307;28;70196;-40
2024/01/09 00:32:50;;;;;;;30.83;17.27;;;;;;;30.00;68.51;101145.50;5039878;28;66116;-41
2024/01/09 00:35:21;;;;;;;34.28;17.42;;;;;;;29.97;68.67;101135.09;5053972;28;70314;-40
2024/01/09 00:37:52;;;;;;;35.63;17.35;;;;;;;30.02;68.60;101133.44;5054462;28;66221;-41
2024/01/09 00:40:22;;;;;;;31.98;16.17;;;;;;;30.00;69.04;101137.38;5039618;28;70606;-43
2024/01/09 00:42:53;;;;;;;36.13;17.33;;;;;;;29.97;69.41;101132.38;5045280;28;65178;-42
2024/01/09 00:45:23;;;;;;;43.08;17.08;;;;;;;30.04;69.42;101152.16;5028518;28;69837;-43
2024/01/09 00:47:54;;;;;;;31.57;17.50;;;;;;;29.99;69.80;101141.13;5048799;28;66260;-43
2024/01/09 00:50:25;;;;;;;25.00;16.45;;;;;;;29.95;69.43;101145.28;5057155;28;69522;-41
2024/01/09 00:52:56;;;;;;;29.60;15.35;;;;;;;30.04;69.49;101157.56;5057303;28;65347;-42
2024/01/09 00:55:27;;;;;;;42.83;18.15;;;;;;;30.09;69.74;101159.63;5071465;28;69860;-43
2024/01/09 00:57:57;;;;;;;29.38;15.98;;;;;;;30.05;70.15;101154.66;5055864;28;66107;-41
2024/01/09 01:00:28;;;;;;;29.98;16.42;;;;;;;30.03;69.23;101145.06;5057556;28;70388;-41
2024/01/09 01:02:58;;;;;;;31.23;16.67;;;;;;;30.09;69.50;101157.78;5058726;28;66616;-42
2024/01/09 01:05:29;;;;;;;24.35;15.75;;;;;;;30.07;69.84;101157.16;5049783;28;70482;-41
2024/01/09 01:08:00;;;;;;;24.70;16.50;;;;;;;30.09;69.83;101159.63;5049447;28;66580;-41
2024/01/09 01:10:30;;;;;;;28.60;16.15;;;;;;;30.11;69.43;101162.97;5032537;28;69979;-41
2024/01/09 01:13:01;;;;;;;34.97;16.05;;;;;;;30.04;69.40;101153.00;5056089;28;65276;-41
2024/01/09 01:15:32;;;;;;;32.05;16.25;;;;;;;30.12;69.30;101160.06;5054453;28;70459;-41
2024/01/09 01:18:03;;;;;;;32.60;16.42;;;;;;;29.81;69.41;101110.13;5063591;28;66532;-40
2024/01/09 01:20:34;;;;;;;24.42;13.95;;;;;;;30.17;69.04;101171.09;5038118;28;70079;-40
2024/01/09 01:23:05;;;;;;;22.80;14.02;;;;;;;30.25;68.30;101170.06;5073257;28;65673;-40
2024/01/09 01:25:36;;;;;;;24.75;14.27;;;;;;;30.26;67.83;101167.16;5056099;28;70874;-41
2024/01/09 01:28:06;;;;;;;19.02;13.77;;;;;;;30.26;68.09;101172.59;5048591;28;66567;-40
2024/01/09 01:30:37;;;;;;;18.10;13.65;;;;;;;30.35;67.79;101177.78;5042909;28;70927;-40
2024/01/09 01:33:07;;;;;;;24.13;14.35;;;;;;;30.38;67.94;101180.06;5042395;28;65244;-40
2024/01/09 01:35:38;;;;;;;19.13;13.45;;;;;;;30.41;67.52;101175.06;5028937;28;70279;-40
2024/01/09 01:38:09;;;;;;;15.13;12.85;;;;;;;30.33;67.77;101163.63;5059596;28;66544;-41
2024/01/09 01:40:40;;;;;;;13.77;12.38;;;;;;;30.44;67.79;101182.75;5058197;28;70396;-41
2024/01/09 01:43:10;;;;;;;16.02;12.35;;;;;;;30.45;67.50;101180.88;5046344;28;65460;-41
2024/01/09 01:45:41;;;;;;;18.00;12.55;;;;;;;30.44;67.30;101173.81;5042416;28;70116;-40
2024/01/09 01:48:13;;;;;;;17.02;12.93;;;;;;;30.47;67.41;101173.38;5042373;28;66695;-39
2024/01/09 01:50:44;;;;;;;20.52;13.10;;;;;;;30.44;67.12;101174.63;5023986;28;69808;-41
2024/01/09 01:53:15;;;;;;;14.02;12.13;;;;;;;30.53;67.08;101182.53;5039201;28;66614;-41
2024/01/09 01:55:46;;;;;;;18.63;12.35;;;;;;;30.54;67.58;101181.50;5038359;28;69812;-41
2024/01/09 01:58:17;;;;;;;15.98;13.50;;;;;;;30.55;67.32;101185.88;5042507;28;67305;-40
2024/01/09 02:00:48;;;;;;;17.15;12.55;;;;;;;30.55;67.41;101192.13;5040935;28;70434;-40
2024/01/09 02:03:20;;;;;;;16.55;12.73;;;;;;;30.56;67.52;101191.06;5045258;28;66950;-40
2024/01/09 02:05:51;;;;;;;17.77;12.63;;;;;;;30.48;67.44;101169.66;5051970;28;69888;-40
2024/01/09 02:08:24;;;;;;;16.83;12.63;;;;;;;30.59;67.45;101185.25;5030836;28;67994;-40
2024/01/09 02:10:55;;;;;;;16.35;12.02;;;;;;;30.57;67.49;101173.78;5053366;28;68895;-40
2024/01/09 02:13:26;;;;;;;15.70;12.88;;;;;;;30.62;66.98;101176.69;5053364;28;66803;-40
2024/01/09 02:15:56;;;;;;;15.15;11.82;;;;;;;30.65;67.13;101181.69;5050577;28;70417;-41
2024/01/09 02:18:27;;;;;;;16.33;13.30;;;;;;;30.67;67.15;101182.31;5038453;28;66347;-41
2024/01/09 02:20:58;;;;;;;14.38;12.90;;;;;;;30.65;67.61;101175.44;5052001;28;71061;-42
2024/01/09 02:23:28;;;;;;;15.52;12.15;;;;;;;30.66;67.36;101177.09;5058112;28;66136;-41
2024/01/09 02:26:00;;;;;;;18.25;13.82;;;;;;;30.68;67.45;101178.56;5039445;28;70073;-42
2024/01/09 02:28:59;;;;;;;20.40;12.95;;;;;;;30.58;67.58;101175.44;5035311;28;66512;-41
2024/01/09 02:31:30;;;;;;;14.85;12.50;;;;;;;30.71;67.27;101175.41;5038307;28;70731;-40
2024/01/09 02:34:03;;;;;;;14.02;11.98;;;;;;;30.73;66.96;101176.06;5020733;28;65879;-40
2024/01/09 02:36:36;;;;;;;12.98;11.70;;;;;;;30.44;67.35;101125.09;5035646;28;70534;-41
2024/01/09 02:39:07;;;;;;;14.90;13.43;;;;;;;30.76;67.17;101172.09;5040701;28;65420;-41
2024/01/09 02:41:38;;;;;;;16.33;12.02;;;;;;;30.76;67.04;101172.09;5036320;28;70375;-41
2024/01/09 02:44:09;;;;;;;15.45;12.52;;;;;;;30.76;67.22;101168.53;5039717;28;65038;-42
2024/01/09 02:46:39;;;;;;;16.40;12.35;;;;;;;30.80;67.44;101177.94;5048643;28;69966;-40
2024/01/09 02:49:11;;;;;;;13.65;12.35;;;;;;;30.32;67.26;101088.91;5038739;28;66531;-40
2024/01/09 02:51:42;;;;;;;15.43;12.40;;;;;;;30.81;67.12;101176.88;5037264;28;69712;-41
2024/01/09 02:54:12;;;;;;;21.10;13.65;;;;;;;30.78;67.13;101164.56;5054813;28;65735;-41
2024/01/09 02:56:43;;;;;;;15.73;13.23;;;;;;;30.83;67.08;101167.50;5039910;28;70464;-40
2024/01/09 02:59:14;;;;;;;17.77;13.03;;;;;;;30.84;66.97;101173.75;5041243;28;66111;-40
2024/01/09 03:01:45;;;;;;;15.27;13.68;;;;;;;30.89;67.15;101182.88;5035602;28;68835;-41
2024/01/09 03:04:15;;;;;;;14.82;12.48;;;;;;;30.92;67.11;101181.63;5038619;28;66646;-41
2024/01/09 03:06:46;;;;;;;16.92;12.40;;;;;;;30.90;67.18;101172.91;5037338;28;70138;-40
2024/01/09 03:09:17;;;;;;;15.17;12.57;;;;;;;30.91;67.21;101182.69;5042175;28;66072;-41
2024/01/09 03:11:48;;;;;;;13.70;12.40;;;;;;;30.96;67.45;101174.75;5040610;28;70113;-40
2024/01/09 03:14:18;;;;;;;16.17;12.57;;;;;;;30.97;67.08;101173.69;5036226;28;65712;-41
2024/01/09 03:16:49;;;;;;;17.63;12.95;;;;;;;31.00;67.33;101167.84;5042531;28;69702;-41
2024/01/09 03:19:19;;;;;;;16.63;12.18;;;;;;;31.02;67.11;101165.75;5056659;28;65930;-41
2024/01/09 03:21:50;;;;;;;17.73;12.32;;;;;;;30.99;67.36;101158.06;5043522;28;69876;-42
2024/01/09 03:24:20;;;;;;;14.30;12.90;;;;;;;31.03;66.93;101156.59;5046780;28;65721;-41
2024/01/09 03:26:51;;;;;;;17.13;13.25;;;;;;;31.06;66.79;101153.44;5053438;28;69693;-40
2024/01/09 03:29:21;;;;;;;12.68;11.45;;;;;;;31.08;67.29;101145.94;5046267;28;66335;-41
2024/01/09 03:31:52;;;;;;;14.38;12.75;;;;;;;31.09;67.03;101139.50;5059873;28;69940;-41
2024/01/09 03:34:22;;;;;;;14.95;13.45;;;;;;;31.11;67.38;101137.38;5058430;28;65149;-41
2024/01/09 03:36:53;;;;;;;15.85;12.95;;;;;;;31.15;67.22;101135.91;5058879;28;70302;-41
2024/01/09 03:39:23;;;;;;;19.02;13.40;;;;;;;31.17;66.83;101130.25;5059306;28;65975;-40
2024/01/09 03:41:54;;;;;;;18.75;13.52;;;;;;;31.17;67.36;101132.97;5042243;28;70399;-40
2024/01/09 03:44:24;;;;;;;14.38;12.85;;;;;;;31.21;67.22;101131.50;5040642;28;66310;-41
2024/01/09 03:46:55;;;;;;;14.55;13.13;;;;;;;31.19;66.71;101116.50;5040975;28;69765;-40
2024/01/09 03:49:26;;;;;;;16.45;12.85;;;;;;;31.26;66.85;101128.13;5053679;28;66695;-41
2024/01/09 03:51:58;;;;;;;13.55;12.27;;;;;;;31.24;67.26;101109.38;5047332;28;70275;-42
2024/01/09 03:54:29;;;;;;;12.90;11.88;;;;;;;31.25;67.25;101107.50;5075174;28;65352;-41
2024/01/09 03:57:00;;;;;;;13.82;12.48;;;;;;;31.29;66.96;101111.44;5059416;28;69936;-42
2024/01/09 03:59:31;;;;;;;16.90;13.50;;;;;;;31.32;66.63;101111.00;5058424;28;66266;-41
2024/01/09 04:02:01;;;;;;;15.63;12.85;;;;;;;31.36;66.65;101104.13;5050136;28;70531;-41
2024/01/09 04:04:31;;;;;;;15.43;12.95;;;;;;;31.38;66.57;101096.63;5035758;28;66265;-41
2024/01/09 04:07:02;;;;;;;14.57;13.10;;;;;;;31.40;67.01;101091.81;5050239;28;70684;-40
2024/01/09 04:09:33;;;;;;;14.77;13.20;;;;;;;31.39;67.01;101082.00;5059291;28;64316;-41
2024/01/09 04:12:03;;;;;;;14.38;12.88;;;;;;;31.44;66.89;101090.31;5057589;28;70414;-41
2024/01/09 04:14:34;;;;;;;15.93;13.27;;;;;;;31.43;66.96;101075.09;5069117;28;65749;-41
2024/01/09 04:17:06;;;;;;;15.48;13.02;;;;;;;31.49;66.85;101085.06;5051489;28;70228;-41
2024/01/09 04:19:40;;;;;;;14.93;12.90;;;;;;;31.49;66.80;101071.50;5048556;28;65842;-40
2024/01/09 04:22:11;;;;;;;13.70;12.30;;;;;;;31.25;66.80;101028.91;5057290;28;69861;-40
2024/01/09 04:24:41;;;;;;;13.95;12.68;;;;;;;31.56;66.63;101077.69;5059669;28;66246;-40
2024/01/09 04:27:12;;;;;;;14.32;12.63;;;;;;;31.52;66.65;101052.09;5074297;28;70910;-41
2024/01/09 04:29:42;;;;;;;13.68;12.32;;;;;;;31.51;66.43;101050.44;5059638;28;66188;-41
2024/01/09 04:32:13;;;;;;;14.00;12.68;;;;;;;31.60;66.73;101054.53;5059047;28;70654;-40
2024/01/09 04:34:43;;;;;;;14.38;12.88;;;;;;;31.66;66.45;101052.00;5063110;28;66089;-42
2024/01/09 04:37:14;;;;;;;14.50;13.00;;;;;;;31.67;66.60;101050.94;5052752;28;69894;-42
2024/01/09 04:39:44;;;;;;;15.43;13.30;;;;;;;31.67;66.53;101043.59;5043584;28;65459;-40
2024/01/09 04:42:15;;;;;;;16.97;13.27;;;;;;;31.71;66.63;101039.41;5042213;28;70293;-41
2024/01/09 04:44:47;;;;;;;14.70;13.15;;;;;;;31.66;66.59;101030.28;5040778;28;66691;-42
2024/01/09 04:47:18;;;;;;;13.07;11.52;;;;;;;31.72;66.45;101024.78;5061617;28;70094;-41
2024/01/09 04:49:49;;;;;;;;;;;;;;;31.44;67.92;101016.28;5064372;28;65343;-42
2024/01/09 04:52:19;;;;;;;13.52;12.20;;;;;;;31.75;66.62;101012.66;5047324;28;69704;-42
2024/01/09 04:54:51;;;;;;;13.60;12.35;;;;;;;31.79;66.39;101012.00;5061270;28;66058;-41
2024/01/09 04:57:22;;;;;;;13.43;12.10;;;;;;;31.81;66.57;101006.34;5049353;28;70013;-42
2024/01/09 04:59:53;;;;;;;14.25;12.35;;;;;;;31.86;66.24;100998.38;5062690;28;66605;-45
2024/01/09 05:02:23;;;;;;;13.75;12.38;;;;;;;31.84;66.43;100984.19;5057556;28;69984;-40
2024/01/09 05:04:53;;;;;;;13.77;12.55;;;;;;;31.91;66.58;100995.00;5050560;28;66490;-42
2024/01/09 05:07:24;;;;;;;14.15;12.43;;;;;;;31.83;66.26;100967.09;5062313;28;70653;-41
2024/01/09 05:09:54;;;;;;;12.65;11.50;;;;;;;31.94;66.53;100975.59;5060664;28;65599;-41
2024/01/09 05:12:25;;;;;;;12.75;11.60;;;;;;;31.95;66.06;100975.34;5041439;28;69272;-42
2024/01/09 05:14:55;;;;;;;12.68;11.70;;;;;;;31.98;66.27;100969.50;5042755;28;65985;-41
2024/01/09 05:17:26;;;;;;;13.77;12.27;;;;;;;32.00;66.19;100967.38;5038941;28;72527;-43
2024/01/09 05:19:56;;;;;;;13.25;12.15;;;;;;;32.00;66.25;100956.50;5043396;28;65234;-41
2024/01/09 05:22:29;;;;;;;14.68;11.65;;;;;;;32.03;66.11;100950.63;5052204;28;70341;-41
2024/01/09 05:24:59;;;;;;;11.80;10.90;;;;;;;32.04;66.08;100946.06;5049323;28;66380;-41
2024/01/09 05:27:30;;;;;;;13.23;12.23;;;;;;;32.07;66.13;100939.31;5046166;28;69696;-40
2024/01/09 05:30:00;;;;;;;12.55;11.20;;;;;;;32.09;65.98;100937.22;5059989;28;66025;-41
2024/01/09 05:32:31;;;;;;;12.50;11.32;;;;;;;32.09;66.12;100926.34;5057142;28;70162;-40
2024/01/09 05:35:02;;;;;;;12.70;11.67;;;;;;;32.11;66.01;100926.97;5059772;28;65821;-41
2024/01/09 05:37:33;;;;;;;13.38;11.50;;;;;;;32.12;65.92;100920.47;5072751;28;69209;-41
2024/01/09 05:40:04;;;;;;;15.45;12.52;;;;;;;32.13;65.91;100916.72;5058036;28;66239;-41
2024/01/09 05:42:34;;;;;;;12.50;11.50;;;;;;;32.16;65.89;100910.84;5041876;28;70480;-41
2024/01/09 05:45:06;;;;;;;12.98;11.70;;;;;;;32.16;65.73;100894.56;5047957;28;65514;-42
2024/01/09 05:47:37;;;;;;;14.23;12.63;;;;;;;32.20;65.80;100890.31;5058647;28;71394;-41
2024/01/09 05:50:08;;;;;;;12.13;11.15;;;;;;;32.20;65.84;100883.00;5057419;28;66864;-42
2024/01/09 05:52:39;;;;;;;13.23;12.15;;;;;;;32.20;65.92;100879.44;5057772;28;69485;-42
2024/01/09 05:55:09;;;;;;;13.57;12.37;;;;;;;32.22;65.65;100869.19;5073013;28;67348;-41
2024/01/09 05:57:40;;;;;;;16.52;12.68;;;;;;;32.29;65.68;100869.94;5059839;28;70140;-42
2024/01/09 06:00:11;;;;;;;14.70;13.13;;;;;;;32.28;65.62;100860.13;5045546;28;65547;-41
2024/01/09 06:02:41;;;;;;;13.50;12.45;;;;;;;32.32;65.67;100849.63;5059933;28;70421;-40
2024/01/09 06:05:12;;;;;;;13.90;12.50;;;;;;;32.30;65.51;100836.31;5059209;28;66143;-40
2024/01/09 06:07:43;;;;;;;13.80;12.35;;;;;;;32.36;65.73;100840.81;5043774;28;69070;-41
2024/01/09 06:10:14;;;;;;;14.80;13.18;;;;;;;32.31;65.52;100832.53;5055258;28;67943;-42
2024/01/09 06:12:44;;;;;;;14.82;13.43;;;;;;;32.38;65.56;100830.56;5056842;28;70175;-42
2024/01/09 06:15:16;;;;;;;16.45;14.73;;;;;;;32.28;65.45;100800.41;5038349;28;66581;-41
2024/01/09 06:17:47;;;;;;;15.23;13.90;;;;;;;32.42;65.40;100826.31;5036878;28;69823;-42
2024/01/09 06:20:18;;;;;;;15.70;14.20;;;;;;;32.44;65.44;100810.63;5047173;28;65968;-41
2024/01/09 06:22:49;;;;;;;15.13;13.73;;;;;;;32.45;65.38;100801.41;5049263;28;69966;-41
2024/01/09 06:25:19;;;;;;;16.13;14.65;;;;;;;32.35;65.40;100779.44;5058734;28;65644;-42
2024/01/09 06:27:50;;;;;;;17.38;13.93;;;;;;;32.44;65.28;100788.88;5043668;28;69419;-40
2024/01/09 06:30:21;;;;;;;15.85;14.27;;;;;;;32.49;65.43;100794.50;5060980;28;66140;-42
2024/01/09 06:32:51;;;;;;;15.63;14.07;;;;;;;32.45;65.65;100779.69;5043676;28;69456;-40
2024/01/09 06:35:22;;;;;;;17.23;14.02;;;;;;;32.58;65.29;100794.16;5042450;28;66362;-41
2024/01/09 06:37:53;;;;;;;15.88;14.23;;;;;;;32.54;65.26;100776.66;5046960;28;70588;-42
2024/01/09 06:40:24;;;;;;;14.93;13.63;;;;;;;32.44;65.24;100750.88;5057440;28;66159;-42
2024/01/09 06:42:55;;;;;;;14.35;13.20;;;;;;;32.59;65.21;100768.63;5052365;28;70074;-42
2024/01/09 06:45:25;;;;;;;17.85;14.15;;;;;;;32.66;65.11;100769.38;5061345;28;66916;-42
2024/01/09 06:47:56;;;;;;;16.73;14.07;;;;;;;32.66;65.00;100770.19;5059125;28;70133;-42
2024/01/09 06:50:28;;;;;;;14.30;13.15;;;;;;;32.64;65.26;100760.63;5057295;28;65815;-41
2024/01/09 06:53:06;;;;;;;14.82;13.50;;;;;;;32.71;65.05;100767.59;5058829;28;69053;-41
2024/01/09 06:55:37;;;;;;;14.15;13.13;;;;;;;32.69;64.72;100758.03;5046104;28;66464;-42
2024/01/09 06:58:07;;;;;;;16.40;14.48;;;;;;;32.75;64.85;100767.13;5058171;28;69959;-40
2024/01/09 07:00:38;;;;;;;15.52;14.18;;;;;;;32.75;65.04;100757.06;5039259;28;66637;-40
2024/01/09 07:03:09;;;;;;;16.67;14.95;;;;;;;32.77;65.25;100763.09;5060027;28;69811;-42
2024/01/09 07:05:40;;;;;;;16.27;14.77;;;;;;;32.78;64.84;100753.88;5074712;28;67652;-41
2024/01/09 07:08:11;;;;;;;15.27;13.90;;;;;;;32.78;64.95;100758.50;5066703;28;70290;-41
2024/01/09 07:10:42;;;;;;;18.23;15.07;;;;;;;32.82;64.88;100757.78;5054914;28;66845;-40
2024/01/09 07:13:13;;;;;;;16.90;15.02;;;;;;;32.81;64.82;100758.84;5059980;28;71067;-41
2024/01/09 07:15:43;;;;;;;17.02;15.23;;;;;;;32.88;65.24;100767.72;5046586;28;65206;-41
2024/01/09 07:18:14;;;;;;;25.52;16.75;;;;;;;32.86;65.03;100753.53;5042271;28;70462;-41
2024/01/09 07:20:45;;;;;;;17.17;15.57;;;;;;;32.75;64.59;100723.66;5050240;28;66132;-41
2024/01/09 07:23:16;;;;;;;16.10;14.70;;;;;;;32.90;64.72;100743.84;5061501;28;70500;-41
2024/01/09 07:25:50;;;;;;;16.63;14.85;;;;;;;32.84;64.33;100731.19;5058075;28;65832;-41
2024/01/09 07:28:21;;;;;;;20.23;15.65;;;;;;;32.93;64.63;100743.38;5060885;28;70138;-41
2024/01/09 07:30:52;;;;;;;17.05;15.32;;;;;;;32.95;64.56;100745.84;5074504;28;66160;-42
2024/01/09 07:33:23;;;;;;;16.58;15.10;;;;;;;32.68;64.55;100688.44;5044644;28;69990;-41
2024/01/09 07:35:54;;;;;;;17.33;14.83;;;;;;;32.94;64.55;100739.59;5040744;28;66325;-42
2024/01/09 07:38:25;;;;;;;15.87;14.10;;;;;;;32.99;64.74;100736.16;5058274;28;69672;-40
2024/01/09 07:40:55;;;;;;;16.30;14.80;;;;;;;32.97;64.30;100732.84;5055403;28;66465;-42
2024/01/09 07:43:29;;;;;;;16.95;15.18;;;;;;;32.96;64.32;100727.63;5059747;28;69510;-42
2024/01/09 07:46:00;;;;;;;15.93;14.07;;;;;;;33.06;64.39;100736.88;5058618;28;66848;-41
2024/01/09 07:48:31;;;;;;;15.97;14.50;;;;;;;33.02;64.32;100734.91;5060103;28;71579;-41
2024/01/09 07:51:02;;;;;;;;;;;;;;;32.83;64.88;100731.44;5034433;28;66185;-41
2024/01/09 07:53:33;;;;;;;16.65;15.05;;;;;;;33.06;64.28;100730.63;5056989;28;69911;-42
2024/01/09 07:56:12;;;;;;;15.95;14.40;;;;;;;33.02;64.42;100729.47;5075693;28;65614;-41
2024/01/09 07:58:43;;;;;;;16.88;15.25;;;;;;;33.04;64.64;100721.88;5059082;28;69141;-41
2024/01/09 08:01:15;;;;;;;16.03;14.70;;;;;;;33.10;64.45;100729.09;5057628;28;65248;-41
2024/01/09 08:03:46;;;;;;;16.50;14.90;;;;;;;33.08;64.13;100720.34;5058685;28;70671;-40
2024/01/09 08:06:17;;;;;;;17.05;15.40;;;;;;;33.08;64.31;100717.63;5059615;28;66749;-41
2024/01/09 08:08:49;;;;;;;16.98;15.18;;;;;;;33.13;64.26;100720.47;5035896;28;69842;-41
2024/01/09 08:11:20;;;;;;;18.02;16.02;;;;;;;33.16;63.99;100719.97;5049777;28;66668;-42
2024/01/09 08:13:51;;;;;;;16.85;15.25;;;;;;;33.18;64.10;100723.25;5047362;28;70906;-41
2024/01/09 08:16:21;;;;;;;16.10;14.70;;;;;;;33.19;63.72;100724.94;5048974;28;67260;-42
2024/01/09 08:18:52;;;;;;;15.95;14.48;;;;;;;33.17;64.17;100718.91;5057912;28;70603;-41
2024/01/09 08:21:22;;;;;;;16.23;14.80;;;;;;;33.20;64.12;100732.00;5054853;28;66815;-41
2024/01/09 08:23:53;;;;;;;17.40;14.68;;;;;;;33.21;64.20;100733.69;5030799;28;69550;-40
2024/01/09 08:26:24;;;;;;;15.65;14.35;;;;;;;33.24;64.11;100733.19;5041671;28;66574;-41
2024/01/09 08:28:55;;;;;;;16.57;15.00;;;;;;;33.25;64.07;100736.72;5048324;28;71783;-41
2024/01/09 08:31:25;;;;;;;15.38;13.88;;;;;;;33.26;63.96;100725.59;5053428;28;66458;-42
2024/01/09 08:33:56;;;;;;;20.73;14.63;;;;;;;33.17;64.05;100721.63;5047559;28;70455;-42
2024/01/09 08:36:27;;;;;;;16.30;14.77;;;;;;;33.28;64.14;100734.34;5046817;28;66992;-40
2024/01/09 08:38:58;;;;;;;15.93;14.47;;;;;;;33.00;64.05;100686.22;5069821;28;70761;-42
2024/01/09 08:41:28;;;;;;;15.68;14.20;;;;;;;33.30;63.98;100732.22;5043652;28;66875;-41
2024/01/09 08:43:59;;;;;;;15.80;14.30;;;;;;;33.27;63.80;100719.13;5040994;28;70458;-41
2024/01/09 08:46:29;;;;;;;15.93;14.43;;;;;;;33.31;63.86;100724.91;5050771;28;65602;-41
2024/01/09 08:49:01;;;;;;;16.00;14.70;;;;;;;33.32;63.82;100727.38;5050482;28;69888;-41
2024/01/09 08:51:32;;;;;;;;;;;;;;;33.12;64.37;100735.09;5051243;28;66072;-41
2024/01/09 08:54:02;;;;;;;15.63;14.00;;;;;;;33.33;63.90;100737.19;5039717;28;70841;-41
2024/01/09 08:56:32;;;;;;;15.25;14.05;;;;;;;33.36;63.78;100739.41;5038009;28;66723;-40
2024/01/09 08:59:04;;;;;;;15.30;13.97;;;;;;;33.13;63.69;100699.53;5054542;28;70058;-41
2024/01/09 09:01:37;;;;;;;15.50;13.98;;;;;;;32.61;63.78;100620.69;5035324;28;66391;-41
2024/01/09 09:04:08;;;;;;;16.38;14.88;;;;;;;33.40;63.23;100742.47;5030356;28;69472;-41
2024/01/09 09:06:38;;;;;;;16.55;15.07;;;;;;;33.34;63.60;100732.56;5042486;28;66781;-42
2024/01/09 09:09:09;;;;;;;15.70;14.38;;;;;;;33.30;63.92;100729.50;5043037;28;70699;-42
2024/01/09 09:11:40;;;;;;;15.90;14.25;;;;;;;33.44;63.83;100737.41;5054005;28;66726;-41
2024/01/09 09:14:10;;;;;;;15.75;14.50;;;;;;;33.33;63.43;100737.19;5059820;28;70486;-43
2024/01/09 09:16:43;;;;;;;17.92;16.10;;;;;;;33.17;64.69;100754.22;5036386;28;66164;-41
2024/01/09 09:19:14;;;;;;;22.50;17.92;;;;;;;32.99;65.59;100748.91;5040642;28;70168;-42
2024/01/09 09:21:44;;;;;;;23.88;18.25;;;;;;;32.87;65.66;100749.75;5048339;28;65393;-43
2024/01/09 09:24:15;;;;;;;19.90;17.75;;;;;;;33.00;65.41;100747.88;5045547;28;70258;-42
2024/01/09 09:26:45;;;;;;;23.42;17.80;;;;;;;32.93;65.71;100754.25;5042367;28;66068;-42
2024/01/09 09:29:16;;;;;;;18.57;16.77;;;;;;;32.86;66.04;100747.28;5045215;28;69231;-41
2024/01/09 09:32:00;;;;;;;20.05;17.15;;;;;;;32.90;65.76;100749.28;5030830;28;66037;-41
2024/01/09 09:34:31;;;;;;;26.70;18.17;;;;;;;33.00;65.60;100747.88;5044532;28;69918;-42
2024/01/09 09:37:02;;;;;;;21.27;17.73;;;;;;;33.00;65.66;100764.19;5044903;28;65609;-43
2024/01/09 09:39:32;;;;;;;24.48;17.70;;;;;;;33.00;66.07;100775.06;5046666;28;70505;-41
2024/01/09 09:42:03;;;;;;;22.90;17.83;;;;;;;33.03;65.69;100774.59;5047205;28;66106;-43
2024/01/09 09:44:37;;;;;;;18.42;16.70;;;;;;;32.70;66.17;100725.19;5050780;28;70503;-42
2024/01/09 09:47:11;;;;;;;20.88;16.52;;;;;;;33.00;66.89;100775.06;5059159;28;65518;-42
2024/01/09 09:49:42;;;;;;;20.35;16.40;;;;;;;32.97;65.84;100775.50;5046405;28;70640;-42
2024/01/09 09:52:14;;;;;;;27.27;16.75;;;;;;;33.05;66.14;100791.47;5037068;28;66403;-43
2024/01/09 09:54:45;;;;;;;17.50;15.70;;;;;;;33.04;66.71;100792.53;5044451;28;70150;-41
2024/01/09 09:57:16;;;;;;;23.95;15.80;;;;;;;33.04;66.56;100792.53;5056036;28;65275;-42
2024/01/09 09:59:47;;;;;;;22.73;15.98;;;;;;;32.99;66.54;100795.94;5046251;28;70055;-41
2024/01/09 10:02:28;;;;;;;19.15;16.27;;;;;;;33.05;67.97;100805.06;5055472;28;67047;-41
2024/01/09 10:05:10;;;;;;;17.02;15.23;;;;;;;33.03;68.08;100802.56;5041285;28;69617;-41
2024/01/09 10:07:44;;;;;;;18.90;15.68;;;;;;;33.01;67.19;100798.44;5052395;28;66454;-41
2024/01/09 10:10:20;;;;;;;23.42;14.57;;;;;;;33.03;67.11;100812.63;5055284;28;69096;-40
2024/01/09 10:12:53;;;;;;;23.42;15.57;;;;;;;33.01;67.44;100814.75;5054846;28;66283;-40
2024/01/09 10:15:24;;;;;;;22.42;15.20;;;;;;;32.91;67.57;100799.84;5062622;28;70588;-41
2024/01/09 10:17:54;;;;;;;17.67;13.98;;;;;;;32.99;67.62;100817.69;5047362;28;65786;-41
2024/01/09 10:20:30;;;;;;;19.58;14.30;;;;;;;32.96;68.76;100829.03;5019583;28;68957;-43
2024/01/09 10:23:00;;;;;;;16.35;13.25;;;;;;;32.88;68.49;100816.63;5041589;28;66617;-41
2024/01/09 10:25:32;;;;;;;18.83;13.18;;;;;;;32.92;68.22;100825.94;5018820;28;70307;-43
2024/01/09 10:28:08;;;;;;;22.35;13.73;;;;;;;32.83;69.78;100824.63;5041736;28;64825;-40
2024/01/09 10:30:41;;;;;;;13.85;12.48;;;;;;;32.92;68.34;100831.38;5041189;28;69898;-45
2024/01/09 10:33:13;;;;;;;22.30;12.73;;;;;;;32.90;68.97;100835.38;5024083;28;65962;-40
2024/01/09 10:35:44;;;;;;;17.00;11.40;;;;;;;32.88;69.05;100832.91;5042884;28;69226;-41
2024/01/09 10:38:24;;;;;;;18.35;11.98;;;;;;;32.87;71.29;100852.16;5029068;28;65821;-41
2024/01/09 10:40:58;;;;;;;19.45;12.43;;;;;;;32.89;69.34;100852.75;5040871;28;68136;-41
2024/01/09 10:43:28;;;;;;;13.30;10.68;;;;;;;32.83;69.85;100857.25;5041127;28;65830;-41
2024/01/09 10:46:01;;;;;;;13.75;11.50;;;;;;;32.72;69.92;100848.00;5046689;28;70252;-42
2024/01/09 10:48:34;;;;;;;24.17;12.57;;;;;;;32.81;69.83;100862.06;5040383;28;65923;-41
2024/01/09 10:51:05;;;;;;;20.40;11.00;;;;;;;32.82;69.89;100863.75;5040358;28;70141;-41
2024/01/09 10:53:38;;;;;;;13.50;10.68;;;;;;;32.80;69.92;100863.16;5042868;28;65436;-41
2024/01/09 10:56:09;;;;;;;14.57;10.82;;;;;;;32.69;70.39;100856.63;5042717;28;70832;-41
2024/01/09 10:58:44;;;;;;;14.52;10.70;;;;;;;32.75;70.31;100876.59;5047447;28;66493;-41
2024/01/09 11:01:15;;;;;;;12.25;10.30;;;;;;;32.45;70.33;100833.97;5049431;28;71138;-41
2024/01/09 11:03:47;;;;;;;15.27;10.82;;;;;;;32.74;70.97;100887.72;5042256;28;66506;-38
2024/01/09 11:06:19;;;;;;;13.35;10.02;;;;;;;32.57;70.99;100866.66;5041074;28;69735;-41
2024/01/09 11:08:58;;;;;;;13.32;10.63;;;;;;;32.68;73.45;100897.59;5039259;28;66303;-41
2024/01/09 11:11:30;;;;;;;15.18;10.60;;;;;;;32.70;71.08;100900.91;5039321;28;69127;-40
2024/01/09 11:14:08;;;;;;;18.23;10.43;;;;;;;32.62;72.63;100906.66;5036765;28;65317;-39
2024/01/09 11:16:44;;;;;;;13.43;9.80;;;;;;;32.61;73.03;100902.31;5038080;28;69318;-43
2024/01/09 11:19:17;;;;;;;18.27;10.43;;;;;;;32.58;72.12;100903.59;5052071;28;43138;-39
2024/01/09 11:21:49;;;;;;;10.48;9.38;;;;;;;32.57;71.99;100907.38;5046714;28;69073;-39
2024/01/09 11:24:27;;;;;;;10.13;8.70;;;;;;;32.52;74.08;100917.28;5038201;28;65447;-40
2024/01/09 11:27:19;;;;;;;13.77;9.15;;;;;;;32.47;74.35;100907.91;5031552;28;70944;-40